Time;durP1;ratioP1;P1;durP2;ratioP2;P2;SDS_P1;SDS_P2;PMS_P1;PMS_P2;Temp;Humidity;BMP_temperature;BMP_pressure;BME280_temperature;BME280_humidity;BME280_pressure;Samples;Min_cycle;Max_cycle;Signal;HPM_P1;HPM_P2
2023/02/08 00:02:23;;;;;;;;;;;;;;;29.40;16.53;102508.81;5077440;28;1098;-27
2023/02/08 00:04:48;;;;;;;;;;;;;;;29.53;16.47;102502.16;5077388;28;1894;-28
2023/02/08 00:07:14;;;;;;;;;;;;;;;28.45;17.13;102501.84;5077700;28;1153;-27
2023/02/08 00:09:39;;;;;;;;;;;;;;;27.32;18.20;102506.88;5077552;28;1199;-28
2023/02/08 00:12:04;;;;;;;;;;;;;;;28.65;17.17;102504.47;5077082;28;1611;-26
2023/02/08 00:14:30;;;;;;;;;;;;;;;29.23;16.78;102504.28;5077501;28;1063;-27
2023/02/08 00:16:55;;;;;;;;;;;;;;;29.56;16.22;102501.84;5077219;28;1055;-29
2023/02/08 00:19:20;;;;;;;;;;;;;;;29.57;16.30;102511.66;5077019;28;1095;-26
2023/02/08 00:21:46;;;;;;;;;;;;;;;29.11;16.71;102495.50;5076872;28;1205;-28
2023/02/08 00:24:11;;;;;;;;;;;;;;;29.10;16.78;102508.19;5076779;28;1902;-28
2023/02/08 00:26:36;;;;;;;;;;;;;;;28.34;16.95;102516.44;5077055;28;1171;-28
2023/02/08 00:29:02;;;;;;;;;;;;;;;27.03;18.58;102513.09;5076898;28;1031;-26
2023/02/08 00:31:27;;;;;;;;;;;;;;;28.25;17.61;102510.03;5076797;28;1146;-28
2023/02/08 00:33:52;;;;;;;;;;;;;;;28.78;17.38;102514.97;5076710;28;1059;-26
2023/02/08 00:36:18;;;;;;;;;;;;;;;28.93;17.23;102515.25;5076246;28;1098;-27
2023/02/08 00:38:43;;;;;;;;;;;;;;;29.11;16.92;102506.34;5076745;28;1092;-28
2023/02/08 00:41:08;;;;;;;;;;;;;;;28.84;16.89;102515.16;5076704;28;1016;-28
2023/02/08 00:43:33;;;;;;;;;;;;;;;28.87;17.09;102514.03;5076548;28;1955;-27
2023/02/08 00:45:59;;;;;;;;;;;;;;;29.02;16.89;102517.09;5076666;28;1067;-26
2023/02/08 00:48:24;;;;;;;;;;;;;;;29.21;16.63;102515.28;5076560;28;1051;-28
2023/02/08 00:50:56;;;;;;;;;;;;;;;29.40;16.67;102524.22;5076699;28;1136;-25
2023/02/08 00:53:22;;;;;;;;;;;;;;;27.56;18.00;102515.56;5076467;28;1185;-27
2023/02/08 00:55:51;;;;;;;;;;;;;;;27.66;18.24;102516.38;5076282;28;1230;-27
2023/02/08 00:58:16;;;;;;;;;;;;;;;28.79;17.16;102524.78;5076255;28;1114;-27
2023/02/08 01:00:41;;;;;;;;;;;;;;;29.15;16.86;102532.13;5075186;28;1410;-30
2023/02/08 01:03:06;;;;;;;;;;;;;;;29.22;16.82;102530.50;5058472;28;1898;-29
2023/02/08 01:05:32;;;;;;;;;;;;;;;29.02;17.01;102530.66;5076249;28;1016;-27
2023/02/08 01:07:57;;;;;;;;;;;;;;;29.00;17.01;102537.22;5075935;28;1167;-29
2023/02/08 01:10:22;;;;;;;;;;;;;;;29.11;16.66;102538.88;5075984;28;1059;-26
2023/02/08 01:12:48;;;;;;;;;;;;;;;29.24;16.63;102542.06;5076346;28;1027;-26
2023/02/08 01:15:13;;;;;;;;;;;;;;;27.56;17.84;102537.19;5076262;28;1071;-28
2023/02/08 01:17:38;;;;;;;;;;;;;;;27.70;18.34;102542.19;5075970;28;1019;-26
2023/02/08 01:20:04;;;;;;;;;;;;;;;28.71;16.91;102541.78;5075961;28;1051;-25
2023/02/08 01:22:29;;;;;;;;;;;;;;;28.95;17.02;102549.34;5075715;28;1212;-27
2023/02/08 01:24:54;;;;;;;;;;;;;;;29.14;16.85;102550.25;5075907;28;1973;-26
2023/02/08 01:27:19;;;;;;;;;;;;;;;28.98;16.80;102544.66;5076076;28;1152;-27
2023/02/08 01:29:45;;;;;;;;;;;;;;;28.85;16.71;102552.09;5075739;28;1126;-26
2023/02/08 01:32:10;;;;;;;;;;;;;;;29.02;16.91;102554.16;5075705;28;1036;-28
2023/02/08 01:34:36;;;;;;;;;;;;;;;29.15;16.58;102557.38;5076369;28;1060;-26
2023/02/08 01:37:01;;;;;;;;;;;;;;;27.89;17.31;102562.09;5075301;28;1071;-30
2023/02/08 01:39:26;;;;;;;;;;;;;;;27.05;18.33;102561.56;5076060;28;1103;-29
2023/02/08 01:41:52;;;;;;;;;;;;;;;28.39;17.62;102553.88;5076098;28;1059;-27
2023/02/08 01:44:17;;;;;;;;;;;;;;;28.69;17.25;102571.72;5075856;28;1969;-27
2023/02/08 01:46:47;;;;;;;;;;;;;;;29.07;16.81;102562.69;5075758;28;1098;-26
2023/02/08 01:49:16;;;;;;;;;;;;;;;29.12;16.46;102562.25;5058038;28;1080;-25
2023/02/08 01:51:46;;;;;;;;;;;;;;;28.87;16.71;102570.91;5075310;28;1059;-27
2023/02/08 01:54:11;;;;;;;;;;;;;;;29.00;16.65;102575.13;5057871;28;1040;-26
2023/02/08 01:56:38;;;;;;;;;;;;;;;28.96;16.68;102561.88;5057639;28;1064;-27
2023/02/08 01:59:05;;;;;;;;;;;;;;;28.65;16.65;102583.84;5057852;28;1172;-26
2023/02/08 02:01:30;;;;;;;;;;;;;;;27.26;17.96;102583.94;5075307;28;1090;-26
2023/02/08 02:03:56;;;;;;;;;;;;;;;28.13;17.64;102581.56;5075628;28;1984;-26
2023/02/08 02:06:23;;;;;;;;;;;;;;;28.84;16.89;102574.75;5058358;28;1222;-26
2023/02/08 02:08:51;;;;;;;;;;;;;;;29.03;16.68;102583.00;5057985;28;1071;-27
2023/02/08 02:11:16;;;;;;;;;;;;;;;29.02;16.68;102582.13;5058340;28;1148;-30
2023/02/08 02:13:41;;;;;;;;;;;;;;;28.70;16.72;102583.38;5061262;28;1032;-25
2023/02/08 02:16:07;;;;;;;;;;;;;;;28.82;16.87;102575.94;5079820;28;1020;-26
2023/02/08 02:18:32;;;;;;;;;;;;;;;29.03;16.55;102585.69;5079580;28;1119;-25
2023/02/08 02:21:08;;;;;;;;;;;;;;;29.11;16.33;102587.63;5079342;28;1197;-25
2023/02/08 02:23:33;;;;;;;;;;;;;;;27.92;17.44;102590.69;5061536;28;1977;-25
2023/02/08 02:25:58;;;;;;;;;;;;;;;26.65;18.94;102581.16;5079188;28;1167;-26
2023/02/08 02:28:30;;;;;;;;;;;;;;;28.50;16.91;102594.31;5079533;28;1024;-27
2023/02/08 02:31:07;;;;;;;;;;;;;;;28.76;16.64;102596.31;5079382;28;1131;-29
2023/02/08 02:33:52;;;;;;;;;;;;;;;28.90;16.68;102604.97;5061027;28;1032;-27
2023/02/08 02:36:25;;;;;;;;;;;;;;;28.66;16.69;102609.06;5078939;28;1060;-28
2023/02/08 02:38:50;;;;;;;;;;;;;;;28.68;16.60;102598.94;5061503;28;948;-26
2023/02/08 02:44:22;;;;;;;;;;;;;;;28.91;16.45;102607.50;5078961;28;1973;-26
2023/02/08 02:47:11;;;;;;;;;;;;;;;29.04;16.30;102603.66;5061280;28;1032;-32
2023/02/08 02:49:45;;;;;;;;;;;;;;;28.00;17.14;102601.63;5070247;28;1151;-26
2023/02/08 02:52:10;;;;;;;;;;;;;;;27.04;18.07;102605.78;5060809;28;1083;-26
2023/02/08 02:54:44;;;;;;;;;;;;;;;28.77;16.64;102610.72;5060966;28;1053;-30
2023/02/08 02:57:11;;;;;;;;;;;;;;;27.82;17.01;102615.91;5060575;28;1060;-27
2023/02/08 02:59:36;;;;;;;;;;;;;;;26.84;18.11;102616.50;5061382;28;1139;-28
2023/02/08 03:02:02;;;;;;;;;;;;;;;27.80;17.91;102623.28;5078587;28;1182;-28
2023/02/08 03:04:31;;;;;;;;;;;;;;;28.05;17.25;102617.44;5078784;28;2199;-26
2023/02/08 03:07:17;;;;;;;;;;;;;;;28.18;17.15;102623.41;5078131;28;1082;-27
2023/02/08 03:10:01;;;;;;;;;;;;;;;28.30;17.14;102620.53;5060931;28;1249;-29
2023/02/08 03:12:28;;;;;;;;;;;;;;;28.14;17.51;102623.84;5078331;28;1139;-29
2023/02/08 03:15:12;;;;;;;;;;;;;;;28.32;17.20;102632.06;5077835;28;857;-26
2023/02/08 03:17:38;;;;;;;;;;;;;;;28.46;16.63;102609.97;5067554;28;1087;-28
2023/02/08 03:20:03;;;;;;;;;;;;;;;28.83;16.51;102639.91;5078505;28;1469;-25
2023/02/08 03:22:33;;;;;;;;;;;;;;;28.91;16.69;102640.03;5078125;28;1210;-25
2023/02/08 03:25:04;;;;;;;;;;;;;;;29.06;16.55;102635.00;5059446;28;1913;-30
2023/02/08 03:27:33;;;;;;;;;;;;;;;29.18;16.34;102632.06;5077972;28;917;-27
2023/02/08 03:30:00;;;;;;;;;;;;;;;29.31;16.16;102632.56;5060267;28;1131;-27
2023/02/08 03:32:31;;;;;;;;;;;;;;;27.79;17.01;102623.44;5059985;28;1190;-26
2023/02/08 03:34:58;;;;;;;;;;;;;;;26.84;18.08;102621.88;5060797;28;1091;-28
2023/02/08 03:37:28;;;;;;;;;;;;;;;28.43;16.76;102618.41;5077836;28;1039;-28
2023/02/08 03:39:57;;;;;;;;;;;;;;;28.81;16.55;102625.69;5078368;28;1266;-26
2023/02/08 03:42:23;;;;;;;;;;;;;;;28.84;16.71;102623.50;5060527;28;1067;-26
2023/02/08 03:45:09;;;;;;;;;;;;;;;28.80;16.38;102607.72;5059482;28;1971;-28
2023/02/08 03:47:36;;;;;;;;;;;;;;;28.48;16.70;102618.81;5060219;28;1103;-28
2023/02/08 03:50:02;;;;;;;;;;;;;;;28.57;16.63;102624.34;5059715;28;1135;-28
2023/02/08 03:52:27;;;;;;;;;;;;;;;28.61;16.63;102620.34;5077471;28;1011;-28
2023/02/08 03:55:07;;;;;;;;;;;;;;;28.71;16.41;102610.31;5059689;28;1310;-26
2023/02/08 03:57:37;;;;;;;;;;;;;;;28.97;15.97;102627.78;5059647;28;1179;-26
2023/02/08 04:00:04;;;;;;;;;;;;;;;29.08;16.18;102634.84;5077604;28;1040;-26
2023/02/08 04:02:30;;;;;;;;;;;;;;;29.19;15.82;102631.09;5077555;28;1158;-29
2023/02/08 04:04:56;;;;;;;;;;;;;;;29.30;15.92;102635.44;5059411;28;1910;-29
2023/02/08 04:07:21;;;;;;;;;;;;;;;27.59;16.99;102636.91;5059329;28;1190;-25
2023/02/08 04:09:46;;;;;;;;;;;;;;;26.69;17.75;102629.50;5077737;28;1210;-30
2023/02/08 04:12:12;;;;;;;;;;;;;;;28.46;16.81;102645.16;5077364;28;1012;-28
2023/02/08 04:14:37;;;;;;;;;;;;;;;28.88;16.17;102655.75;5077171;28;1186;-29
2023/02/08 04:17:02;;;;;;;;;;;;;;;28.40;16.20;102650.31;5076146;28;2423;-24
2023/02/08 04:19:27;;;;;;;;;;;;;;;25.72;13.60;102651.03;5076740;28;2070;-25
2023/02/08 04:21:53;;;;;;;;;;;;;;;23.78;14.08;102621.03;5076255;28;1792;-25
2023/02/08 04:24:19;;;;;;;;;;;;;;;23.12;14.09;102657.91;5076977;28;2158;-27
2023/02/08 04:26:44;;;;;;;;;;;;;;;22.61;14.51;102665.03;5075652;28;2202;-24
2023/02/08 04:29:09;;;;;;;;;;;;;;;21.98;14.57;102662.91;5076976;28;2219;-26
2023/02/08 04:31:35;;;;;;;;;;;;;;;24.53;15.36;102687.22;5076478;28;2137;-31
2023/02/08 04:34:01;;;;;;;;;;;;;;;25.21;14.39;102680.25;5058555;28;1011;-29
2023/02/08 04:36:26;;;;;;;;;;;;;;;28.65;12.55;102691.28;5076041;28;1039;-25
2023/02/08 04:38:52;;;;;;;;;;;;;;;29.09;12.49;102694.31;5076039;28;848;-28
2023/02/08 04:41:17;;;;;;;;;;;;;;;30.00;12.23;102712.63;5076423;28;1051;-25
2023/02/08 04:43:42;;;;;;;;;;;;;;;30.39;12.19;102711.47;5075805;28;1926;-27
2023/02/08 04:46:07;;;;;;;;;;;;;;;30.71;12.24;102725.44;5076532;28;1004;-27
2023/02/08 04:48:33;;;;;;;;;;;;;;;31.03;12.17;102728.56;5076111;28;1056;-27
2023/02/08 04:50:59;;;;;;;;;;;;;;;30.94;12.33;102737.66;5075665;28;835;-27
2023/02/08 04:53:24;;;;;;;;;;;;;;;30.24;12.92;102734.75;5076476;28;1095;-30
2023/02/08 04:55:50;;;;;;;;;;;;;;;30.04;13.30;102734.88;5076034;28;1103;-27
2023/02/08 04:58:15;;;;;;;;;;;;;;;29.98;13.24;102740.94;5074853;28;1464;-28
2023/02/08 05:00:40;;;;;;;;;;;;;;;30.00;12.60;102742.47;5075955;28;1176;-26
2023/02/08 05:03:05;;;;;;;;;;;;;;;30.27;11.50;102734.44;5077354;28;2143;-29
2023/02/08 05:05:31;;;;;;;;;;;;;;;30.31;10.98;102739.38;5073428;28;1056;-29
2023/02/08 05:07:57;;;;;;;;;;;;;;;30.52;11.54;102742.78;5075157;28;1032;-28
2023/02/08 05:10:22;;;;;;;;;;;;;;;29.19;10.53;102743.06;5076710;28;980;-29
2023/02/08 05:12:47;;;;;;;;;;;;;;;24.70;12.08;102739.75;5057704;28;1108;-25
2023/02/08 05:15:12;;;;;;;;;;;;;;;24.29;15.00;102747.31;5075309;28;1152;-25
2023/02/08 05:17:38;;;;;;;;;;;;;;;28.14;12.64;102748.31;5058635;28;1147;-25
2023/02/08 05:20:03;;;;;;;;;;;;;;;28.85;12.82;102749.84;5076273;28;1043;-24
2023/02/08 05:22:29;;;;;;;;;;;;;;;29.20;13.05;102743.91;5076314;28;1457;-25
2023/02/08 05:24:54;;;;;;;;;;;;;;;29.43;12.99;102749.78;5076385;28;1973;-26
2023/02/08 05:27:19;;;;;;;;;;;;;;;29.45;13.19;102753.22;5076201;28;911;-24
2023/02/08 05:29:45;;;;;;;;;;;;;;;29.51;13.18;102761.75;5075403;28;1024;-27
2023/02/08 05:32:10;;;;;;;;;;;;;;;29.69;13.33;102772.69;5076453;28;1104;-24
2023/02/08 05:34:36;;;;;;;;;;;;;;;29.77;13.33;102775.47;5076302;28;1075;-28
2023/02/08 05:37:01;;;;;;;;;;;;;;;29.96;13.28;102779.09;5076081;28;1131;-24
2023/02/08 05:39:26;;;;;;;;;;;;;;;29.87;13.55;102774.56;5076163;28;1027;-25
2023/02/08 05:41:51;;;;;;;;;;;;;;;30.17;13.21;102778.78;5075890;28;1187;-25
2023/02/08 05:44:17;;;;;;;;;;;;;;;29.90;13.64;102791.38;5076452;28;1926;-26
2023/02/08 05:46:42;;;;;;;;;;;;;;;29.83;13.71;102793.00;5073629;28;1127;-26
2023/02/08 05:49:07;;;;;;;;;;;;;;;30.00;13.74;102799.47;5070638;28;1026;-26
2023/02/08 05:51:33;;;;;;;;;;;;;;;30.00;13.67;102777.75;5075335;28;1288;-24
2023/02/08 05:53:58;;;;;;;;;;;;;;;30.17;13.75;102802.34;5075614;28;1348;-25
2023/02/08 05:56:23;;;;;;;;;;;;;;;30.22;13.58;102802.78;5075659;28;1127;-24
2023/02/08 05:58:48;;;;;;;;;;;;;;;30.19;13.75;102811.19;5075568;28;1102;-24
2023/02/08 06:01:14;;;;;;;;;;;;;;;30.24;13.73;102805.34;5076224;28;1043;-25
2023/02/08 06:03:39;;;;;;;;;;;;;;;30.34;13.68;102813.41;5074972;28;1906;-25
2023/02/08 06:06:05;;;;;;;;;;;;;;;30.12;13.87;102807.38;5076081;28;1068;-26
2023/02/08 06:08:30;;;;;;;;;;;;;;;30.24;13.76;102806.19;5076257;28;1024;-27
2023/02/08 06:10:55;;;;;;;;;;;;;;;30.13;13.94;102809.94;5075745;28;1048;-26
2023/02/08 06:13:20;;;;;;;;;;;;;;;30.20;13.77;102815.63;5076080;28;1027;-25
2023/02/08 06:15:46;;;;;;;;;;;;;;;30.35;13.62;102820.53;5075329;28;912;-25
2023/02/08 06:18:11;;;;;;;;;;;;;;;30.20;13.70;102804.78;5075950;28;1107;-27
2023/02/08 06:20:36;;;;;;;;;;;;;;;30.19;13.89;102803.91;5075787;28;1048;-25
2023/02/08 06:23:02;;;;;;;;;;;;;;;30.35;13.86;102812.38;5075654;28;1957;-27
2023/02/08 06:25:27;;;;;;;;;;;;;;;30.31;13.71;102809.16;5075743;28;1107;-26
2023/02/08 06:27:52;;;;;;;;;;;;;;;30.40;13.65;102820.91;5075437;28;1071;-25
2023/02/08 06:30:17;;;;;;;;;;;;;;;30.38;13.46;102814.81;5075809;28;1254;-26
2023/02/08 06:32:43;;;;;;;;;;;;;;;30.34;13.70;102816.97;5075605;28;1183;-26
2023/02/08 06:35:08;;;;;;;;;;;;;;;29.30;14.36;102831.47;5074478;28;1353;-25
2023/02/08 06:37:33;;;;;;;;;;;;;;;28.25;15.64;102821.22;5074868;28;1227;-24
2023/02/08 06:40:00;;;;;;;;;;;;;;;29.90;14.65;102823.94;5071857;28;1267;-27
2023/02/08 06:42:26;;;;;;;;;;;;;;;29.33;14.58;102822.16;5062042;28;948;-25
2023/02/08 06:44:52;;;;;;;;;;;;;;;27.92;16.22;102812.47;5074886;28;1901;-24
2023/02/08 06:47:17;;;;;;;;;;;;;;;29.44;15.10;102819.31;5057507;28;1139;-26
2023/02/08 06:49:42;;;;;;;;;;;;;;;29.88;15.01;102800.69;5075363;28;1102;-23
2023/02/08 06:52:08;;;;;;;;;;;;;;;29.75;15.18;102811.88;5075289;28;1131;-25
2023/02/08 06:54:33;;;;;;;;;;;;;;;29.80;15.33;102809.56;5075021;28;1183;-27
2023/02/08 06:56:58;;;;;;;;;;;;;;;29.76;15.43;102811.72;5075240;28;1028;-27
2023/02/08 06:59:23;;;;;;;;;;;;;;;29.79;15.41;102814.16;5073316;28;1161;-29
2023/02/08 07:01:50;;;;;;;;;;;;;;;29.86;15.32;102814.41;5068096;28;1211;-27
2023/02/08 07:04:15;;;;;;;;;;;;;;;30.00;15.22;102813.03;5060016;28;1975;-27
2023/02/08 07:06:40;;;;;;;;;;;;;;;29.96;15.37;102821.63;5078503;28;1052;-27
2023/02/08 07:09:06;;;;;;;;;;;;;;;29.96;15.23;102808.94;5078735;28;1011;-25
2023/02/08 07:11:31;;;;;;;;;;;;;;;29.99;15.21;102815.91;5078615;28;1080;-25
2023/02/08 07:13:56;;;;;;;;;;;;;;;30.03;15.02;102815.44;5078703;28;1147;-27
2023/02/08 07:16:22;;;;;;;;;;;;;;;30.11;15.17;102814.69;5078102;28;1067;-24
2023/02/08 07:18:47;;;;;;;;;;;;;;;30.27;14.95;102811.31;5078239;28;1081;-24
2023/02/08 07:21:12;;;;;;;;;;;;;;;30.26;15.21;102806.88;5078339;28;1210;-27
2023/02/08 07:23:38;;;;;;;;;;;;;;;30.38;15.00;102809.38;5077744;28;1971;-25
2023/02/08 07:26:04;;;;;;;;;;;;;;;30.46;15.07;102809.47;5068827;28;1261;-26
2023/02/08 07:28:30;;;;;;;;;;;;;;;30.51;15.24;102790.81;5073250;28;1016;-27
2023/02/08 07:30:55;;;;;;;;;;;;;;;30.54;14.88;102801.38;5059582;28;1054;-25
2023/02/08 07:33:20;;;;;;;;;;;;;;;30.49;14.74;102803.72;5072126;28;1211;-25
2023/02/08 07:35:46;;;;;;;;;;;;;;;30.46;14.79;102776.88;5067984;28;1211;-24
2023/02/08 07:38:11;;;;;;;;;;;;;;;30.47;14.76;102784.00;5077594;28;1020;-28
2023/02/08 07:40:36;;;;;;;;;;;;;;;30.44;14.70;102784.31;5077763;28;1056;-24
2023/02/08 07:43:02;;;;;;;;;;;;;;;30.38;14.52;102782.22;5078413;28;1910;-24
2023/02/08 07:45:27;;;;;;;;;;;;;;;30.42;14.62;102783.59;5077573;28;1075;-24
2023/02/08 07:47:52;;;;;;;;;;;;;;;30.36;14.53;102784.25;5077875;28;1106;-23
2023/02/08 07:50:18;;;;;;;;;;;;;;;29.06;15.17;102794.88;5078119;28;1005;-25
2023/02/08 07:52:45;;;;;;;;;;;;;;;28.43;15.38;102793.47;5077265;28;1210;-29
2023/02/08 07:55:15;;;;;;;;;;;;;;;29.30;15.30;102787.22;5077065;28;1016;-25
2023/02/08 07:57:41;;;;;;;;;;;;;;;29.70;15.33;102791.50;5077425;28;1114;-26
2023/02/08 08:00:06;;;;;;;;;;;;;;;29.65;15.20;102785.69;5077252;28;1235;-27
2023/02/08 08:02:32;;;;;;;;;;;;;;;29.72;15.03;102801.34;5068028;28;1289;-34
2023/02/08 08:04:57;;;;;;;;;;;;;;;29.67;15.22;102796.38;5074139;28;1961;-32
2023/02/08 08:07:22;;;;;;;;;;;;;;;29.64;15.14;102805.69;5076687;28;1311;-25
2023/02/08 08:09:47;;;;;;;;;;;;;;;29.60;14.79;102792.56;5076764;28;1266;-26
2023/02/08 08:12:13;;;;;;;;;;;;;;;28.32;16.14;102798.03;5077356;28;1207;-23
2023/02/08 08:14:38;;;;;;;;;;;;;;;28.13;16.04;102806.13;5076167;28;1218;-23
2023/02/08 08:17:03;;;;;;;;;;;;;;;28.23;15.89;102802.44;5069104;28;1168;-25
2023/02/08 08:19:28;;;;;;;;;;;;;;;28.30;15.89;102799.16;5069085;28;1207;-26
2023/02/08 08:21:54;;;;;;;;;;;;;;;28.26;15.81;102803.97;5076797;28;1252;-27
2023/02/08 08:24:19;;;;;;;;;;;;;;;28.11;16.30;102804.41;5074050;28;1910;-24
2023/02/08 08:26:44;;;;;;;;;;;;;;;28.58;16.47;102796.63;5076649;28;1007;-27
2023/02/08 08:29:10;;;;;;;;;;;;;;;28.67;15.76;102809.31;5076841;28;856;-24
2023/02/08 08:31:37;;;;;;;;;;;;;;;28.56;15.92;102804.06;5083491;28;1079;-26
2023/02/08 08:34:02;;;;;;;;;;;;;;;28.36;15.83;102801.34;5076969;28;1035;-26
2023/02/08 08:36:27;;;;;;;;;;;;;;;29.20;16.08;102795.41;5076526;28;1035;-24
2023/02/08 08:38:53;;;;;;;;;;;;;;;29.44;15.78;102797.63;5076219;28;1098;-26
2023/02/08 08:41:21;;;;;;;;;;;;;;;29.50;15.98;102779.00;5076409;28;1023;-25
2023/02/08 08:43:46;;;;;;;;;;;;;;;29.77;15.67;102789.06;5076293;28;1894;-25
2023/02/08 08:46:11;;;;;;;;;;;;;;;28.72;15.99;102806.16;5075900;28;1091;-27
2023/02/08 08:48:39;;;;;;;;;;;;;;;28.42;16.13;102794.50;5075675;28;1032;-28
2023/02/08 08:51:05;;;;;;;;;;;;;;;28.33;16.21;102788.06;5076742;28;1130;-28
2023/02/08 08:53:30;;;;;;;;;;;;;;;28.03;16.45;102790.72;5075543;28;862;-25
2023/02/08 08:55:56;;;;;;;;;;;;;;;26.86;17.39;102787.34;5076047;28;1171;-25
2023/02/08 08:58:21;;;;;;;;;;;;;;;27.09;16.85;102798.84;5057407;28;1227;-27
2023/02/08 09:00:46;;;;;;;;;;;;;;;27.42;16.53;102773.56;5068803;28;1071;-27
2023/02/08 09:03:12;;;;;;;;;;;;;;;27.13;17.11;102788.63;5076400;28;1901;-24
2023/02/08 09:05:37;;;;;;;;;;;;;;;26.99;17.03;102790.66;5075402;28;941;-27
2023/02/08 09:08:02;;;;;;;;;;;;;;;28.03;16.84;102793.41;5076196;28;1027;-28
2023/02/08 09:10:28;;;;;;;;;;;;;;;28.66;16.05;102793.22;5068938;28;1207;-26
2023/02/08 09:12:53;;;;;;;;;;;;;;;28.85;16.18;102792.31;5071284;28;1282;-24
2023/02/08 09:15:18;;;;;;;;;;;;;;;28.93;15.78;102791.56;5068247;28;1077;-30
2023/02/08 09:17:44;;;;;;;;;;;;;;;27.21;17.15;102788.00;5070856;28;1376;-26
2023/02/08 09:20:09;;;;;;;;;;;;;;;27.07;16.94;102783.78;5069582;28;1215;-24
2023/02/08 09:22:34;;;;;;;;;;;;;;;28.35;16.22;102799.63;5075317;28;1239;-25
2023/02/08 09:25:00;;;;;;;;;;;;;;;28.51;16.11;102796.34;5069635;28;1976;-25
2023/02/08 09:27:26;;;;;;;;;;;;;;;28.72;15.92;102806.16;5074808;28;1027;-28
2023/02/08 09:29:51;;;;;;;;;;;;;;;28.72;15.65;102793.50;5075419;28;1111;-29
2023/02/08 09:32:17;;;;;;;;;;;;;;;28.64;15.84;102789.78;5075619;28;1047;-28
2023/02/08 09:34:42;;;;;;;;;;;;;;;28.87;15.79;102786.75;5075470;28;1199;-25
2023/02/08 09:37:07;;;;;;;;;;;;;;;28.78;15.45;102777.66;5074199;28;1055;-27
2023/02/08 09:39:33;;;;;;;;;;;;;;;28.87;15.38;102789.47;5073228;28;1115;-24
2023/02/08 09:41:59;;;;;;;;;;;;;;;28.83;15.09;102794.31;5074347;28;973;-25
2023/02/08 09:44:27;;;;;;;;;;;;;;;29.02;14.96;102798.03;5069627;28;1956;-24
2023/02/08 09:47:01;;;;;;;;;;;;;;;29.00;15.15;102800.00;5071624;28;956;-30
2023/02/08 09:49:27;;;;;;;;;;;;;;;29.03;14.88;102799.75;5075320;28;1127;-26
2023/02/08 09:51:55;;;;;;;;;;;;;;;29.06;14.83;102796.75;5075257;28;1139;-26
2023/02/08 09:54:25;;;;;;;;;;;;;;;29.03;14.74;102797.88;5075553;28;1135;-24
2023/02/08 09:56:50;;;;;;;;;;;;;;;27.19;16.24;102798.94;5075501;28;1131;-25
2023/02/08 09:59:18;;;;;;;;;;;;;;;26.53;16.98;102788.22;5057841;28;1131;-25
2023/02/08 10:01:43;;;;;;;;;;;;;;;28.50;15.60;102799.19;5075248;28;1167;-26
2023/02/08 10:04:12;;;;;;;;;;;;;;;28.67;15.41;102809.31;5056589;28;1910;-25
2023/02/08 10:06:37;;;;;;;;;;;;;;;28.76;15.11;102804.88;5056983;28;1026;-29
2023/02/08 10:09:03;;;;;;;;;;;;;;;28.70;15.22;102822.56;5057329;28;1040;-26
2023/02/08 10:11:34;;;;;;;;;;;;;;;28.81;15.27;102818.00;5075848;28;1079;-25
2023/02/08 10:14:03;;;;;;;;;;;;;;;28.88;15.03;102823.69;5075482;28;1094;-28
2023/02/08 10:16:28;;;;;;;;;;;;;;;28.89;14.99;102828.09;5075085;28;1112;-27
2023/02/08 10:19:19;;;;;;;;;;;;;;;27.04;16.44;102817.34;5075630;28;1242;-27
2023/02/08 10:21:45;;;;;;;;;;;;;;;26.75;16.52;102821.50;5051533;28;1336;-27
2023/02/08 10:24:30;;;;;;;;;;;;;;;28.48;15.69;102812.88;5075113;28;1915;-25
2023/02/08 10:27:02;;;;;;;;;;;;;;;28.76;15.49;102823.00;5033790;28;1044;-26
2023/02/08 10:29:40;;;;;;;;;;;;;;;28.84;15.48;102823.13;5057262;28;1091;-27
2023/02/08 10:32:11;;;;;;;;;;;;;;;28.69;15.59;102788.38;5075566;28;1059;-26
2023/02/08 10:34:40;;;;;;;;;;;;;;;28.98;15.69;102807.44;5061561;28;1088;-26
2023/02/08 10:37:10;;;;;;;;;;;;;;;29.13;15.62;102816.81;5078499;28;1123;-24
2023/02/08 10:39:35;;;;;;;;;;;;;;;29.19;15.28;102827.09;5079380;28;1052;-28
2023/02/08 10:42:01;;;;;;;;;;;;;;;29.29;15.43;102829.75;5061124;28;1132;-24
2023/02/08 10:44:26;;;;;;;;;;;;;;;29.15;15.34;102836.50;5061079;28;1887;-24
2023/02/08 10:46:58;;;;;;;;;;;;;;;29.29;15.27;102812.63;5078652;28;1186;-26
2023/02/08 10:49:26;;;;;;;;;;;;;;;29.37;15.21;102820.88;5077714;28;929;-27
2023/02/08 10:51:51;;;;;;;;;;;;;;;29.55;14.97;102818.25;5074855;28;1059;-27
2023/02/08 10:54:17;;;;;;;;;;;;;;;29.44;14.80;102822.00;5076382;28;931;-27
2023/02/08 10:56:43;;;;;;;;;;;;;;;27.67;16.66;102812.81;5078666;28;1136;-25
2023/02/08 10:59:29;;;;;;;;;;;;;;;27.36;16.60;102804.72;5058341;28;1291;-29
2023/02/08 11:01:54;;;;;;;;;;;;;;;29.02;15.75;102822.41;5054046;28;1331;-25
2023/02/08 11:04:19;;;;;;;;;;;;;;;27.49;16.59;102809.88;5075613;28;1957;-24
2023/02/08 11:06:45;;;;;;;;;;;;;;;27.26;16.94;102810.91;5066988;28;984;-28
2023/02/08 11:09:20;;;;;;;;;;;;;;;27.23;17.15;102808.47;5052474;28;1176;-25
2023/02/08 11:11:46;;;;;;;;;;;;;;;27.25;17.32;102809.19;5078824;28;1235;-27
2023/02/08 11:14:38;;;;;;;;;;;;;;;27.17;17.06;102810.84;5078597;28;1123;-27
2023/02/08 11:17:03;;;;;;;;;;;;;;;28.59;16.47;102815.41;5063939;28;1537;-25
2023/02/08 11:19:41;;;;;;;;;;;;;;;28.71;16.30;102805.31;5077852;28;1032;-27
2023/02/08 11:22:12;;;;;;;;;;;;;;;28.88;16.11;102807.44;5077284;28;1329;-27
2023/02/08 11:24:42;;;;;;;;;;;;;;;27.56;16.31;102808.34;5078693;28;1917;-26
2023/02/08 11:27:16;;;;;;;;;;;;;;;27.30;16.54;102811.50;5078028;28;1039;-30
2023/02/08 11:29:42;;;;;;;;;;;;;;;28.49;16.52;102801.06;5077708;28;952;-25
2023/02/08 11:32:14;;;;;;;;;;;;;;;28.55;16.24;102813.16;5078329;28;1028;-27
2023/02/08 11:34:40;;;;;;;;;;;;;;;28.82;16.34;102819.69;5078490;28;1112;-26
2023/02/08 11:37:15;;;;;;;;;;;;;;;28.95;16.18;102811.25;5058688;28;1110;-29
2023/02/08 11:39:50;;;;;;;;;;;;;;;28.98;16.01;102826.41;5068482;28;1255;-25
2023/02/08 11:42:25;;;;;;;;;;;;;;;29.00;15.91;102825.25;5049480;28;1141;-26
2023/02/08 11:44:50;;;;;;;;;;;;;;;29.04;16.15;102842.09;5067380;28;1971;-27
2023/02/08 11:47:16;;;;;;;;;;;;;;;29.05;15.82;102828.38;5070776;28;1402;-29
2023/02/08 11:49:42;;;;;;;;;;;;;;;29.29;15.79;102843.31;5050833;28;1212;-28
2023/02/08 11:52:18;;;;;;;;;;;;;;;29.48;15.61;102846.13;5055752;28;1416;-25
2023/02/08 11:54:43;;;;;;;;;;;;;;;29.53;15.61;102851.94;5059402;28;1149;-28
2023/02/08 11:57:21;;;;;;;;;;;;;;;29.56;15.69;102851.66;5071367;28;1266;-26
2023/02/08 11:59:47;;;;;;;;;;;;;;;29.61;15.60;102856.66;5075345;28;1239;-26
2023/02/08 12:02:31;;;;;;;;;;;;;;;28.50;15.91;102853.31;5071379;28;1200;-25
2023/02/08 12:04:56;;;;;;;;;;;;;;;27.43;16.93;102853.66;5069393;28;1914;-26
2023/02/08 12:07:40;;;;;;;;;;;;;;;28.01;17.13;102829.72;5068445;28;1168;-30
2023/02/08 12:10:05;;;;;;;;;;;;;;;28.71;16.43;102809.88;5073638;28;1038;-26
2023/02/08 12:12:49;;;;;;;;;;;;;;;29.12;16.37;102830.50;5076963;28;1102;-27
2023/02/08 12:15:21;;;;;;;;;;;;;;;29.03;16.28;102833.09;5076919;28;1047;-30
2023/02/08 12:17:59;;;;;;;;;;;;;;;29.19;16.17;102828.94;5058753;28;1091;-31
2023/02/08 12:20:36;;;;;;;;;;;;;;;29.21;16.21;102832.34;5059410;28;1238;-26
2023/02/08 12:23:10;;;;;;;;;;;;;;;29.39;16.13;102832.44;5077103;28;1910;-29
2023/02/08 12:25:38;;;;;;;;;;;;;;;29.45;15.98;102834.56;5076901;28;1130;-26
2023/02/08 12:28:06;;;;;;;;;;;;;;;29.55;16.04;102820.94;5076546;28;1135;-26
2023/02/08 12:30:52;;;;;;;;;;;;;;;29.80;15.90;102818.59;5069097;28;1383;-28
2023/02/08 12:33:36;;;;;;;;;;;;;;;29.77;15.92;102820.75;5056241;28;1497;-29
2023/02/08 12:36:04;;;;;;;;;;;;;;;29.67;15.66;102816.22;5065736;28;1461;-27
2023/02/08 12:41:20;;;;;;;;;;;;;;;27.67;17.03;102820.91;5073218;28;1123;-27
2023/02/08 12:43:51;;;;;;;;;;;;;;;29.26;16.32;102816.47;5069696;28;1906;-28
2023/02/08 12:46:35;;;;;;;;;;;;;;;29.45;16.09;102821.00;5065891;28;1235;-27
2023/02/08 12:49:03;;;;;;;;;;;;;;;29.23;16.27;102805.09;5071851;28;1251;-26
2023/02/08 12:51:29;;;;;;;;;;;;;;;29.41;16.17;102806.00;5072867;28;1187;-27
2023/02/08 12:53:56;;;;;;;;;;;;;;;29.48;16.21;102816.28;5075200;28;1215;-26
2023/02/08 12:56:22;;;;;;;;;;;;;;;29.33;16.34;102820.31;5044892;28;1156;-25